sensor_id;sensor_type;location;lat;lon;timestamp;temperature;humidity
3660;DHT22;1846;51.482;7.224;2023-04-03T00:00:07;2.50;1.00
3660;DHT22;1846;51.482;7.224;2023-04-03T00:02:34;2.50;1.00
3660;DHT22;1846;51.482;7.224;2023-04-03T00:05:01;2.50;1.00
3660;DHT22;1846;51.482;7.224;2023-04-03T00:07:27;2.50;1.00
3660;DHT22;1846;51.482;7.224;2023-04-03T00:09:54;2.50;1.00
3660;DHT22;1846;51.482;7.224;2023-04-03T00:12:23;2.50;1.00
3660;DHT22;1846;51.482;7.224;2023-04-03T00:14:49;2.50;1.00
3660;DHT22;1846;51.482;7.224;2023-04-03T00:17:16;2.50;1.00
3660;DHT22;1846;51.482;7.224;2023-04-03T00:19:43;2.50;1.00
3660;DHT22;1846;51.482;7.224;2023-04-03T00:22:10;2.40;1.00
3660;DHT22;1846;51.482;7.224;2023-04-03T00:24:37;2.50;1.00
3660;DHT22;1846;51.482;7.224;2023-04-03T00:27:04;2.40;1.00
3660;DHT22;1846;51.482;7.224;2023-04-03T00:29:32;2.40;1.00
3660;DHT22;1846;51.482;7.224;2023-04-03T00:31:59;2.40;1.00
3660;DHT22;1846;51.482;7.224;2023-04-03T00:34:26;2.40;1.00
3660;DHT22;1846;51.482;7.224;2023-04-03T00:36:53;2.30;1.00
3660;DHT22;1846;51.482;7.224;2023-04-03T00:39:19;2.30;1.00
3660;DHT22;1846;51.482;7.224;2023-04-03T00:41:46;2.30;1.00
3660;DHT22;1846;51.482;7.224;2023-04-03T00:47:29;2.30;1.00
3660;DHT22;1846;51.482;7.224;2023-04-03T00:49:57;2.30;1.00
3660;DHT22;1846;51.482;7.224;2023-04-03T00:52:27;2.40;1.00
3660;DHT22;1846;51.482;7.224;2023-04-03T00:54:58;2.40;1.00
3660;DHT22;1846;51.482;7.224;2023-04-03T00:57:26;2.50;1.00
3660;DHT22;1846;51.482;7.224;2023-04-03T00:59:57;2.60;1.00
3660;DHT22;1846;51.482;7.224;2023-04-03T01:02:25;2.60;1.00
3660;DHT22;1846;51.482;7.224;2023-04-03T01:04:54;2.60;99.90
3660;DHT22;1846;51.482;7.224;2023-04-03T01:07:23;2.70;99.90
3660;DHT22;1846;51.482;7.224;2023-04-03T01:09:55;2.80;99.90
3660;DHT22;1846;51.482;7.224;2023-04-03T01:12:24;2.70;99.90
3660;DHT22;1846;51.482;7.224;2023-04-03T01:14:53;2.80;1.00
3660;DHT22;1846;51.482;7.224;2023-04-03T01:17:28;2.70;1.00
3660;DHT22;1846;51.482;7.224;2023-04-03T01:20:23;2.70;1.00
3660;DHT22;1846;51.482;7.224;2023-04-03T01:23:05;2.70;99.90
3660;DHT22;1846;51.482;7.224;2023-04-03T01:25:34;2.70;1.00
3660;DHT22;1846;51.482;7.224;2023-04-03T01:28:01;2.80;99.90
3660;DHT22;1846;51.482;7.224;2023-04-03T01:30:32;2.80;1.00
3660;DHT22;1846;51.482;7.224;2023-04-03T01:33:01;2.80;99.90
3660;DHT22;1846;51.482;7.224;2023-04-03T01:35:27;2.80;99.90
3660;DHT22;1846;51.482;7.224;2023-04-03T01:37:55;2.80;10.80
3660;DHT22;1846;51.482;7.224;2023-04-03T01:40:21;2.80;1.00
3660;DHT22;1846;51.482;7.224;2023-04-03T01:42:48;2.80;1.00
3660;DHT22;1846;51.482;7.224;2023-04-03T01:45:15;2.80;99.90
3660;DHT22;1846;51.482;7.224;2023-04-03T01:47:42;2.80;1.00
3660;DHT22;1846;51.482;7.224;2023-04-03T01:50:10;2.90;99.90
3660;DHT22;1846;51.482;7.224;2023-04-03T01:52:37;2.80;1.00
3660;DHT22;1846;51.482;7.224;2023-04-03T01:55:05;2.80;14.00
3660;DHT22;1846;51.482;7.224;2023-04-03T01:57:32;2.80;1.00
3660;DHT22;1846;51.482;7.224;2023-04-03T01:59:59;2.70;1.00
3660;DHT22;1846;51.482;7.224;2023-04-03T02:02:25;2.80;82.10
3660;DHT22;1846;51.482;7.224;2023-04-03T02:04:52;2.80;44.00
3660;DHT22;1846;51.482;7.224;2023-04-03T02:07:21;2.80;1.00
3660;DHT22;1846;51.482;7.224;2023-04-03T02:09:48;2.70;1.00
3660;DHT22;1846;51.482;7.224;2023-04-03T02:12:15;2.70;1.00
3660;DHT22;1846;51.482;7.224;2023-04-03T02:14:42;2.70;1.00
3660;DHT22;1846;51.482;7.224;2023-04-03T02:17:09;2.70;1.00
3660;DHT22;1846;51.482;7.224;2023-04-03T02:19:36;2.70;1.00
3660;DHT22;1846;51.482;7.224;2023-04-03T02:22:04;2.70;1.00
3660;DHT22;1846;51.482;7.224;2023-04-03T02:24:32;2.70;99.90
3660;DHT22;1846;51.482;7.224;2023-04-03T02:26:59;2.70;99.90
3660;DHT22;1846;51.482;7.224;2023-04-03T02:29:26;2.70;1.00
3660;DHT22;1846;51.482;7.224;2023-04-03T02:31:53;2.70;99.90
3660;DHT22;1846;51.482;7.224;2023-04-03T02:34:20;2.70;99.90
3660;DHT22;1846;51.482;7.224;2023-04-03T02:36:46;2.70;99.90
3660;DHT22;1846;51.482;7.224;2023-04-03T02:39:13;2.60;99.90
3660;DHT22;1846;51.482;7.224;2023-04-03T02:41:42;2.50;99.90
3660;DHT22;1846;51.482;7.224;2023-04-03T02:44:12;2.60;99.90
3660;DHT22;1846;51.482;7.224;2023-04-03T02:46:39;2.60;99.90
3660;DHT22;1846;51.482;7.224;2023-04-03T02:49:06;2.60;99.90
3660;DHT22;1846;51.482;7.224;2023-04-03T02:51:33;2.60;99.90
3660;DHT22;1846;51.482;7.224;2023-04-03T02:53:59;2.50;99.90
3660;DHT22;1846;51.482;7.224;2023-04-03T02:56:26;2.40;99.90
3660;DHT22;1846;51.482;7.224;2023-04-03T02:58:54;2.50;99.90
3660;DHT22;1846;51.482;7.224;2023-04-03T03:01:21;2.40;99.90
3660;DHT22;1846;51.482;7.224;2023-04-03T03:03:48;2.40;99.90
3660;DHT22;1846;51.482;7.224;2023-04-03T03:06:16;2.40;99.90
3660;DHT22;1846;51.482;7.224;2023-04-03T03:08:44;2.40;99.90
3660;DHT22;1846;51.482;7.224;2023-04-03T03:11:11;2.40;99.90
3660;DHT22;1846;51.482;7.224;2023-04-03T03:13:38;2.40;99.90
3660;DHT22;1846;51.482;7.224;2023-04-03T03:16:07;2.40;91.30
3660;DHT22;1846;51.482;7.224;2023-04-03T03:18:34;2.40;79.80
3660;DHT22;1846;51.482;7.224;2023-04-03T03:21:03;2.40;99.90
3660;DHT22;1846;51.482;7.224;2023-04-03T03:23:31;2.40;99.90
3660;DHT22;1846;51.482;7.224;2023-04-03T03:26:00;2.40;99.90
3660;DHT22;1846;51.482;7.224;2023-04-03T03:28:27;2.30;2.10
3660;DHT22;1846;51.482;7.224;2023-04-03T03:30:54;2.30;1.00
3660;DHT22;1846;51.482;7.224;2023-04-03T03:33:22;2.40;1.00
3660;DHT22;1846;51.482;7.224;2023-04-03T03:35:49;2.30;51.10
3660;DHT22;1846;51.482;7.224;2023-04-03T03:38:16;2.20;69.30
3660;DHT22;1846;51.482;7.224;2023-04-03T03:40:43;2.20;99.90
3660;DHT22;1846;51.482;7.224;2023-04-03T03:43:10;2.20;99.90
3660;DHT22;1846;51.482;7.224;2023-04-03T03:45:37;2.20;99.90
3660;DHT22;1846;51.482;7.224;2023-04-03T03:48:05;2.20;99.90
3660;DHT22;1846;51.482;7.224;2023-04-03T03:50:33;2.20;99.90
3660;DHT22;1846;51.482;7.224;2023-04-03T03:53:00;2.10;1.00
3660;DHT22;1846;51.482;7.224;2023-04-03T03:55:27;2.00;69.80
3660;DHT22;1846;51.482;7.224;2023-04-03T03:57:53;2.00;99.90
3660;DHT22;1846;51.482;7.224;2023-04-03T04:00:20;2.00;99.90
3660;DHT22;1846;51.482;7.224;2023-04-03T04:02:47;2.10;99.90
3660;DHT22;1846;51.482;7.224;2023-04-03T04:05:14;2.00;99.90
3660;DHT22;1846;51.482;7.224;2023-04-03T04:07:43;2.00;99.90
3660;DHT22;1846;51.482;7.224;2023-04-03T04:10:10;2.00;99.90
3660;DHT22;1846;51.482;7.224;2023-04-03T04:12:37;1.90;99.90
3660;DHT22;1846;51.482;7.224;2023-04-03T04:15:04;1.90;99.90
3660;DHT22;1846;51.482;7.224;2023-04-03T04:17:33;1.90;99.90
3660;DHT22;1846;51.482;7.224;2023-04-03T04:20:00;1.90;99.90
3660;DHT22;1846;51.482;7.224;2023-04-03T04:22:28;1.90;99.90
3660;DHT22;1846;51.482;7.224;2023-04-03T04:24:56;1.90;99.90
3660;DHT22;1846;51.482;7.224;2023-04-03T04:27:23;1.90;1.00
3660;DHT22;1846;51.482;7.224;2023-04-03T04:29:50;1.90;99.90
3660;DHT22;1846;51.482;7.224;2023-04-03T04:32:17;1.90;99.90
3660;DHT22;1846;51.482;7.224;2023-04-03T04:34:44;1.90;99.90
3660;DHT22;1846;51.482;7.224;2023-04-03T04:37:11;1.90;99.90
3660;DHT22;1846;51.482;7.224;2023-04-03T04:39:37;1.90;99.90
3660;DHT22;1846;51.482;7.224;2023-04-03T04:42:06;1.90;61.90
3660;DHT22;1846;51.482;7.224;2023-04-03T04:44:38;1.90;99.90
3660;DHT22;1846;51.482;7.224;2023-04-03T04:47:04;1.90;56.50
3660;DHT22;1846;51.482;7.224;2023-04-03T04:49:31;1.90;11.10
3660;DHT22;1846;51.482;7.224;2023-04-03T04:51:58;2.00;99.90
3660;DHT22;1846;51.482;7.224;2023-04-03T04:54:25;2.00;1.00
3660;DHT22;1846;51.482;7.224;2023-04-03T04:56:52;2.00;1.00
3660;DHT22;1846;51.482;7.224;2023-04-03T04:59:20;1.90;1.00
3660;DHT22;1846;51.482;7.224;2023-04-03T05:01:47;1.90;1.00
3660;DHT22;1846;51.482;7.224;2023-04-03T05:04:14;1.90;99.90
3660;DHT22;1846;51.482;7.224;2023-04-03T05:06:41;1.90;1.00
3660;DHT22;1846;51.482;7.224;2023-04-03T05:09:08;1.90;1.00
3660;DHT22;1846;51.482;7.224;2023-04-03T05:11:35;1.90;21.60
3660;DHT22;1846;51.482;7.224;2023-04-03T05:14:02;1.90;55.80
3660;DHT22;1846;51.482;7.224;2023-04-03T05:16:32;1.90;6.20
3660;DHT22;1846;51.482;7.224;2023-04-03T05:18:59;1.80;53.10
3660;DHT22;1846;51.482;7.224;2023-04-03T05:21:26;1.90;99.90
3660;DHT22;1846;51.482;7.224;2023-04-03T05:23:57;1.90;1.00
3660;DHT22;1846;51.482;7.224;2023-04-03T05:26:24;1.80;1.00
3660;DHT22;1846;51.482;7.224;2023-04-03T05:28:52;1.80;7.50
3660;DHT22;1846;51.482;7.224;2023-04-03T05:31:19;1.80;1.00
3660;DHT22;1846;51.482;7.224;2023-04-03T05:33:47;1.80;58.00
3660;DHT22;1846;51.482;7.224;2023-04-03T05:36:14;1.80;43.90
3660;DHT22;1846;51.482;7.224;2023-04-03T05:38:41;1.80;92.30
3660;DHT22;1846;51.482;7.224;2023-04-03T05:41:08;1.80;99.90
3660;DHT22;1846;51.482;7.224;2023-04-03T05:43:35;1.90;99.90
3660;DHT22;1846;51.482;7.224;2023-04-03T05:46:03;1.90;6.10
3660;DHT22;1846;51.482;7.224;2023-04-03T05:48:30;1.90;1.00
3660;DHT22;1846;51.482;7.224;2023-04-03T05:50:58;1.80;1.00
3660;DHT22;1846;51.482;7.224;2023-04-03T05:53:28;1.80;1.00
3660;DHT22;1846;51.482;7.224;2023-04-03T05:55:56;1.80;10.20
3660;DHT22;1846;51.482;7.224;2023-04-03T05:58:23;1.80;1.00
3660;DHT22;1846;51.482;7.224;2023-04-03T06:00:49;1.90;1.00
3660;DHT22;1846;51.482;7.224;2023-04-03T06:03:16;1.90;1.00
3660;DHT22;1846;51.482;7.224;2023-04-03T06:05:43;1.90;1.00
3660;DHT22;1846;51.482;7.224;2023-04-03T06:08:13;1.90;1.00
3660;DHT22;1846;51.482;7.224;2023-04-03T06:10:40;1.90;1.00
3660;DHT22;1846;51.482;7.224;2023-04-03T06:13:07;2.00;1.00
3660;DHT22;1846;51.482;7.224;2023-04-03T06:15:34;1.90;99.90
3660;DHT22;1846;51.482;7.224;2023-04-03T06:18:01;1.90;99.90
3660;DHT22;1846;51.482;7.224;2023-04-03T06:20:27;1.90;99.90
3660;DHT22;1846;51.482;7.224;2023-04-03T06:22:54;2.00;99.90
3660;DHT22;1846;51.482;7.224;2023-04-03T06:25:23;2.00;99.90
3660;DHT22;1846;51.482;7.224;2023-04-03T06:27:50;2.10;99.90
3660;DHT22;1846;51.482;7.224;2023-04-03T06:30:18;2.10;99.90
3660;DHT22;1846;51.482;7.224;2023-04-03T06:32:45;2.10;99.90
3660;DHT22;1846;51.482;7.224;2023-04-03T06:35:12;2.10;1.00
3660;DHT22;1846;51.482;7.224;2023-04-03T06:37:39;2.10;12.60
3660;DHT22;1846;51.482;7.224;2023-04-03T06:40:09;2.10;1.00
3660;DHT22;1846;51.482;7.224;2023-04-03T06:42:37;2.20;1.00
3660;DHT22;1846;51.482;7.224;2023-04-03T06:45:05;2.20;1.00
3660;DHT22;1846;51.482;7.224;2023-04-03T06:47:33;2.20;1.00
3660;DHT22;1846;51.482;7.224;2023-04-03T06:50:00;2.30;1.00
3660;DHT22;1846;51.482;7.224;2023-04-03T06:52:27;2.30;1.00
3660;DHT22;1846;51.482;7.224;2023-04-03T06:54:54;2.30;1.00
3660;DHT22;1846;51.482;7.224;2023-04-03T06:57:23;2.30;1.00
3660;DHT22;1846;51.482;7.224;2023-04-03T06:59:51;2.40;1.00
3660;DHT22;1846;51.482;7.224;2023-04-03T07:02:18;2.40;99.90
3660;DHT22;1846;51.482;7.224;2023-04-03T07:04:46;2.50;99.90
3660;DHT22;1846;51.482;7.224;2023-04-03T07:07:13;2.40;4.40
3660;DHT22;1846;51.482;7.224;2023-04-03T07:09:40;2.50;1.00
3660;DHT22;1846;51.482;7.224;2023-04-03T07:12:08;2.50;1.00
3660;DHT22;1846;51.482;7.224;2023-04-03T07:14:35;2.60;1.00
3660;DHT22;1846;51.482;7.224;2023-04-03T07:17:03;2.70;1.00
3660;DHT22;1846;51.482;7.224;2023-04-03T07:19:30;2.70;1.00
3660;DHT22;1846;51.482;7.224;2023-04-03T07:21:57;2.70;1.00
3660;DHT22;1846;51.482;7.224;2023-04-03T07:24:24;2.80;1.00
3660;DHT22;1846;51.482;7.224;2023-04-03T07:26:52;3.00;1.00
3660;DHT22;1846;51.482;7.224;2023-04-03T07:29:21;3.00;1.00
3660;DHT22;1846;51.482;7.224;2023-04-03T07:31:48;3.10;1.00
3660;DHT22;1846;51.482;7.224;2023-04-03T07:34:17;3.10;1.00
3660;DHT22;1846;51.482;7.224;2023-04-03T07:36:44;3.10;1.00
3660;DHT22;1846;51.482;7.224;2023-04-03T07:39:10;3.20;99.90
3660;DHT22;1846;51.482;7.224;2023-04-03T07:41:37;3.10;99.90
3660;DHT22;1846;51.482;7.224;2023-04-03T07:44:04;3.20;99.90
3660;DHT22;1846;51.482;7.224;2023-04-03T07:46:32;3.20;99.90
3660;DHT22;1846;51.482;7.224;2023-04-03T07:48:58;3.20;99.90
3660;DHT22;1846;51.482;7.224;2023-04-03T07:51:27;3.40;99.90
3660;DHT22;1846;51.482;7.224;2023-04-03T07:53:55;3.40;99.90
3660;DHT22;1846;51.482;7.224;2023-04-03T07:56:22;3.50;99.90
3660;DHT22;1846;51.482;7.224;2023-04-03T07:58:50;3.60;99.90
3660;DHT22;1846;51.482;7.224;2023-04-03T08:01:17;3.70;99.90
3660;DHT22;1846;51.482;7.224;2023-04-03T08:03:44;3.80;99.90
3660;DHT22;1846;51.482;7.224;2023-04-03T08:06:11;3.80;99.90
3660;DHT22;1846;51.482;7.224;2023-04-03T08:08:40;3.90;99.90
3660;DHT22;1846;51.482;7.224;2023-04-03T08:11:07;3.80;99.90
3660;DHT22;1846;51.482;7.224;2023-04-03T08:13:34;3.80;99.90
3660;DHT22;1846;51.482;7.224;2023-04-03T08:16:08;3.80;99.90
3660;DHT22;1846;51.482;7.224;2023-04-03T08:18:35;3.80;99.90
3660;DHT22;1846;51.482;7.224;2023-04-03T08:21:06;3.90;99.90
3660;DHT22;1846;51.482;7.224;2023-04-03T08:23:33;3.90;99.90
3660;DHT22;1846;51.482;7.224;2023-04-03T08:26:07;4.00;99.90
3660;DHT22;1846;51.482;7.224;2023-04-03T08:28:34;4.20;99.90
3660;DHT22;1846;51.482;7.224;2023-04-03T08:31:04;4.10;99.90
3660;DHT22;1846;51.482;7.224;2023-04-03T08:33:33;4.10;99.90
3660;DHT22;1846;51.482;7.224;2023-04-03T08:36:01;4.20;99.90
3660;DHT22;1846;51.482;7.224;2023-04-03T08:38:28;4.40;99.90
3660;DHT22;1846;51.482;7.224;2023-04-03T08:41:07;4.40;99.90
3660;DHT22;1846;51.482;7.224;2023-04-03T08:43:52;4.50;99.90
3660;DHT22;1846;51.482;7.224;2023-04-03T08:46:24;4.60;99.90
3660;DHT22;1846;51.482;7.224;2023-04-03T08:48:53;4.50;99.90
3660;DHT22;1846;51.482;7.224;2023-04-03T08:51:22;4.60;99.90
3660;DHT22;1846;51.482;7.224;2023-04-03T08:53:56;4.60;99.90
3660;DHT22;1846;51.482;7.224;2023-04-03T08:56:25;4.80;99.90
3660;DHT22;1846;51.482;7.224;2023-04-03T08:58:56;4.90;99.90
3660;DHT22;1846;51.482;7.224;2023-04-03T09:01:27;5.00;99.90
3660;DHT22;1846;51.482;7.224;2023-04-03T09:03:56;5.10;99.90
3660;DHT22;1846;51.482;7.224;2023-04-03T09:06:26;4.90;99.90
3660;DHT22;1846;51.482;7.224;2023-04-03T09:09:06;4.90;99.90
3660;DHT22;1846;51.482;7.224;2023-04-03T09:11:44;4.80;99.90
3660;DHT22;1846;51.482;7.224;2023-04-03T09:14:17;4.80;99.90
3660;DHT22;1846;51.482;7.224;2023-04-03T09:16:50;4.80;99.90
3660;DHT22;1846;51.482;7.224;2023-04-03T09:19:22;4.90;99.90
3660;DHT22;1846;51.482;7.224;2023-04-03T09:21:53;4.90;99.90
3660;DHT22;1846;51.482;7.224;2023-04-03T09:24:22;5.00;99.90
3660;DHT22;1846;51.482;7.224;2023-04-03T09:26:53;5.20;99.90
3660;DHT22;1846;51.482;7.224;2023-04-03T09:29:22;5.40;99.90
3660;DHT22;1846;51.482;7.224;2023-04-03T09:31:52;5.40;99.90
3660;DHT22;1846;51.482;7.224;2023-04-03T09:34:23;5.60;99.90
3660;DHT22;1846;51.482;7.224;2023-04-03T09:36:53;5.60;99.90
3660;DHT22;1846;51.482;7.224;2023-04-03T09:39:21;5.50;99.70
3660;DHT22;1846;51.482;7.224;2023-04-03T09:42:00;5.60;99.90
3660;DHT22;1846;51.482;7.224;2023-04-03T09:44:30;5.60;99.50
3660;DHT22;1846;51.482;7.224;2023-04-03T09:46:57;5.70;99.70
3660;DHT22;1846;51.482;7.224;2023-04-03T09:49:24;5.70;99.90
3660;DHT22;1846;51.482;7.224;2023-04-03T09:51:51;5.90;99.90
3660;DHT22;1846;51.482;7.224;2023-04-03T09:54:34;5.90;98.10
3660;DHT22;1846;51.482;7.224;2023-04-03T09:57:09;6.00;98.50
3660;DHT22;1846;51.482;7.224;2023-04-03T09:59:43;6.20;98.40
3660;DHT22;1846;51.482;7.224;2023-04-03T10:05:28;7.90;99.90
3660;DHT22;1846;51.482;7.224;2023-04-03T10:08:08;8.90;99.90
3660;DHT22;1846;51.482;7.224;2023-04-03T10:10:36;9.80;99.90
3660;DHT22;1846;51.482;7.224;2023-04-03T10:13:07;10.40;99.90
3660;DHT22;1846;51.482;7.224;2023-04-03T10:18:08;12.30;99.90
3660;DHT22;1846;51.482;7.224;2023-04-03T10:20:48;12.50;99.90
3660;DHT22;1846;51.482;7.224;2023-04-03T10:23:18;12.60;99.90
3660;DHT22;1846;51.482;7.224;2023-04-03T10:25:57;12.70;99.90
3660;DHT22;1846;51.482;7.224;2023-04-03T10:28:32;12.80;99.90
3660;DHT22;1846;51.482;7.224;2023-04-03T10:31:07;13.10;99.90
3660;DHT22;1846;51.482;7.224;2023-04-03T10:33:50;13.80;99.90
3660;DHT22;1846;51.482;7.224;2023-04-03T10:36:26;14.30;99.90
3660;DHT22;1846;51.482;7.224;2023-04-03T10:39:00;15.20;99.90
3660;DHT22;1846;51.482;7.224;2023-04-03T10:41:36;15.70;99.90
3660;DHT22;1846;51.482;7.224;2023-04-03T10:44:16;16.60;99.90
3660;DHT22;1846;51.482;7.224;2023-04-03T10:46:49;17.50;99.90
3660;DHT22;1846;51.482;7.224;2023-04-03T10:49:25;17.50;99.90
3660;DHT22;1846;51.482;7.224;2023-04-03T10:51:58;16.00;99.90
3660;DHT22;1846;51.482;7.224;2023-04-03T10:54:31;15.20;99.90
3660;DHT22;1846;51.482;7.224;2023-04-03T10:57:07;14.70;99.90
3660;DHT22;1846;51.482;7.224;2023-04-03T10:59:40;14.40;99.90
3660;DHT22;1846;51.482;7.224;2023-04-03T11:02:16;15.10;99.90
3660;DHT22;1846;51.482;7.224;2023-04-03T11:04:50;15.60;99.90
3660;DHT22;1846;51.482;7.224;2023-04-03T11:07:20;14.90;99.90
3660;DHT22;1846;51.482;7.224;2023-04-03T11:09:52;15.50;99.90
3660;DHT22;1846;51.482;7.224;2023-04-03T11:12:26;15.60;99.90
3660;DHT22;1846;51.482;7.224;2023-04-03T11:14:56;15.60;99.90
3660;DHT22;1846;51.482;7.224;2023-04-03T11:17:30;14.90;99.90
3660;DHT22;1846;51.482;7.224;2023-04-03T11:20:03;14.40;99.90
3660;DHT22;1846;51.482;7.224;2023-04-03T11:22:35;14.10;99.90
3660;DHT22;1846;51.482;7.224;2023-04-03T11:25:06;14.00;99.90
3660;DHT22;1846;51.482;7.224;2023-04-03T11:27:43;13.50;99.90
3660;DHT22;1846;51.482;7.224;2023-04-03T11:30:19;13.60;99.90
3660;DHT22;1846;51.482;7.224;2023-04-03T11:33:02;13.80;99.90
3660;DHT22;1846;51.482;7.224;2023-04-03T11:35:32;13.60;99.90
3660;DHT22;1846;51.482;7.224;2023-04-03T11:38:01;13.70;99.90
3660;DHT22;1846;51.482;7.224;2023-04-03T11:40:33;13.60;99.90
3660;DHT22;1846;51.482;7.224;2023-04-03T11:43:06;13.90;99.90
3660;DHT22;1846;51.482;7.224;2023-04-03T11:45:50;15.20;99.90
3660;DHT22;1846;51.482;7.224;2023-04-03T11:48:47;15.80;99.90
3660;DHT22;1846;51.482;7.224;2023-04-03T11:51:40;15.50;99.90
3660;DHT22;1846;51.482;7.224;2023-04-03T11:54:42;15.40;99.90
3660;DHT22;1846;51.482;7.224;2023-04-03T11:58:01;15.00;99.90
3660;DHT22;1846;51.482;7.224;2023-04-03T12:00:50;14.60;99.90
3660;DHT22;1846;51.482;7.224;2023-04-03T12:06:53;13.40;99.90
3660;DHT22;1846;51.482;7.224;2023-04-03T12:09:34;13.80;99.90
3660;DHT22;1846;51.482;7.224;2023-04-03T12:12:27;14.30;99.90
3660;DHT22;1846;51.482;7.224;2023-04-03T12:14:54;14.50;99.90
3660;DHT22;1846;51.482;7.224;2023-04-03T12:17:27;14.10;99.90
3660;DHT22;1846;51.482;7.224;2023-04-03T12:19:54;13.40;98.90
3660;DHT22;1846;51.482;7.224;2023-04-03T12:22:21;12.70;95.80
3660;DHT22;1846;51.482;7.224;2023-04-03T12:24:50;12.40;93.40
3660;DHT22;1846;51.482;7.224;2023-04-03T12:27:33;12.70;94.70
3660;DHT22;1846;51.482;7.224;2023-04-03T12:30:16;12.30;93.30
3660;DHT22;1846;51.482;7.224;2023-04-03T12:33:12;12.30;92.40
3660;DHT22;1846;51.482;7.224;2023-04-03T12:35:46;12.30;92.70
3660;DHT22;1846;51.482;7.224;2023-04-03T12:38:37;12.20;92.50
3660;DHT22;1846;51.482;7.224;2023-04-03T12:41:21;11.90;90.70
3660;DHT22;1846;51.482;7.224;2023-04-03T12:44:01;11.80;90.20
3660;DHT22;1846;51.482;7.224;2023-04-03T12:46:39;12.00;90.70
3660;DHT22;1846;51.482;7.224;2023-04-03T12:49:26;12.30;91.70
3660;DHT22;1846;51.482;7.224;2023-04-03T12:51:57;12.40;92.40
3660;DHT22;1846;51.482;7.224;2023-04-03T12:54:29;12.30;91.60
3660;DHT22;1846;51.482;7.224;2023-04-03T12:57:09;12.40;92.60
3660;DHT22;1846;51.482;7.224;2023-04-03T12:59:36;12.50;92.70
3660;DHT22;1846;51.482;7.224;2023-04-03T13:02:15;12.80;94.00
3660;DHT22;1846;51.482;7.224;2023-04-03T13:04:48;12.60;92.40
3660;DHT22;1846;51.482;7.224;2023-04-03T13:07:24;12.20;90.70
3660;DHT22;1846;51.482;7.224;2023-04-03T13:09:57;11.50;82.80
3660;DHT22;1846;51.482;7.224;2023-04-03T13:12:24;10.90;76.10
3660;DHT22;1846;51.482;7.224;2023-04-03T13:14:52;10.80;89.30
3660;DHT22;1846;51.482;7.224;2023-04-03T13:17:20;10.90;75.60
3660;DHT22;1846;51.482;7.224;2023-04-03T13:19:49;10.80;75.80
3660;DHT22;1846;51.482;7.224;2023-04-03T13:22:26;10.80;76.00
3660;DHT22;1846;51.482;7.224;2023-04-03T13:24:56;10.80;77.00
3660;DHT22;1846;51.482;7.224;2023-04-03T13:27:24;11.20;81.30
3660;DHT22;1846;51.482;7.224;2023-04-03T13:29:53;11.40;82.40
3660;DHT22;1846;51.482;7.224;2023-04-03T13:32:22;11.30;92.00
3660;DHT22;1846;51.482;7.224;2023-04-03T13:34:51;11.10;78.80
3660;DHT22;1846;51.482;7.224;2023-04-03T13:37:23;10.60;73.90
3660;DHT22;1846;51.482;7.224;2023-04-03T13:39:59;10.70;74.30
3660;DHT22;1846;51.482;7.224;2023-04-03T13:42:28;10.60;73.80
3660;DHT22;1846;51.482;7.224;2023-04-03T13:45:19;10.60;74.40
3660;DHT22;1846;51.482;7.224;2023-04-03T13:47:47;10.40;70.10
3660;DHT22;1846;51.482;7.224;2023-04-03T13:50:18;10.30;70.00
3660;DHT22;1846;51.482;7.224;2023-04-03T13:52:48;10.00;67.20
3660;DHT22;1846;51.482;7.224;2023-04-03T13:55:19;10.10;68.10
3660;DHT22;1846;51.482;7.224;2023-04-03T13:57:53;10.10;81.60
3660;DHT22;1846;51.482;7.224;2023-04-03T14:00:27;10.10;70.60
3660;DHT22;1846;51.482;7.224;2023-04-03T14:02:55;10.00;67.90
3660;DHT22;1846;51.482;7.224;2023-04-03T14:05:24;10.00;68.10
3660;DHT22;1846;51.482;7.224;2023-04-03T14:07:54;10.00;82.70
3660;DHT22;1846;51.482;7.224;2023-04-03T14:10:22;10.10;70.60
3660;DHT22;1846;51.482;7.224;2023-04-03T14:12:49;10.30;73.10
3660;DHT22;1846;51.482;7.224;2023-04-03T14:15:20;10.70;76.10
3660;DHT22;1846;51.482;7.224;2023-04-03T14:17:49;10.80;77.30
3660;DHT22;1846;51.482;7.224;2023-04-03T14:20:18;10.70;75.50
3660;DHT22;1846;51.482;7.224;2023-04-03T14:22:47;10.80;77.30
3660;DHT22;1846;51.482;7.224;2023-04-03T14:25:15;10.80;76.00
3660;DHT22;1846;51.482;7.224;2023-04-03T14:27:44;10.70;74.90
3660;DHT22;1846;51.482;7.224;2023-04-03T14:30:15;10.50;73.00
3660;DHT22;1846;51.482;7.224;2023-04-03T14:32:42;10.40;71.60
3660;DHT22;1846;51.482;7.224;2023-04-03T14:35:09;10.40;72.70
3660;DHT22;1846;51.482;7.224;2023-04-03T14:37:36;10.50;73.50
3660;DHT22;1846;51.482;7.224;2023-04-03T14:40:06;10.80;75.40
3660;DHT22;1846;51.482;7.224;2023-04-03T14:42:36;10.80;75.60
3660;DHT22;1846;51.482;7.224;2023-04-03T14:45:05;10.70;74.00
3660;DHT22;1846;51.482;7.224;2023-04-03T14:47:34;10.60;72.80
3660;DHT22;1846;51.482;7.224;2023-04-03T14:50:04;10.80;75.00
3660;DHT22;1846;51.482;7.224;2023-04-03T14:52:35;10.90;75.80
3660;DHT22;1846;51.482;7.224;2023-04-03T14:55:05;11.20;79.90
3660;DHT22;1846;51.482;7.224;2023-04-03T14:57:33;11.10;77.30
3660;DHT22;1846;51.482;7.224;2023-04-03T15:00:00;11.10;75.90
3660;DHT22;1846;51.482;7.224;2023-04-03T15:02:32;11.00;76.30
3660;DHT22;1846;51.482;7.224;2023-04-03T15:05:00;11.10;77.70
3660;DHT22;1846;51.482;7.224;2023-04-03T15:07:30;11.30;80.10
3660;DHT22;1846;51.482;7.224;2023-04-03T15:10:15;11.50;81.10
3660;DHT22;1846;51.482;7.224;2023-04-03T15:12:44;11.50;80.60
3660;DHT22;1846;51.482;7.224;2023-04-03T15:15:13;11.40;77.40
3660;DHT22;1846;51.482;7.224;2023-04-03T15:17:40;11.50;80.00
3660;DHT22;1846;51.482;7.224;2023-04-03T15:20:12;11.70;81.70
3660;DHT22;1846;51.482;7.224;2023-04-03T15:22:40;11.70;81.90
3660;DHT22;1846;51.482;7.224;2023-04-03T15:25:07;12.00;83.40
3660;DHT22;1846;51.482;7.224;2023-04-03T15:27:35;11.90;82.30
3660;DHT22;1846;51.482;7.224;2023-04-03T15:30:04;11.60;90.20
3660;DHT22;1846;51.482;7.224;2023-04-03T15:32:31;11.20;72.70
3660;DHT22;1846;51.482;7.224;2023-04-03T15:34:59;10.70;68.10
3660;DHT22;1846;51.482;7.224;2023-04-03T15:37:26;10.40;65.30
3660;DHT22;1846;51.482;7.224;2023-04-03T15:39:52;10.40;64.90
3660;DHT22;1846;51.482;7.224;2023-04-03T15:42:19;10.00;60.70
3660;DHT22;1846;51.482;7.224;2023-04-03T15:44:46;10.10;64.50
3660;DHT22;1846;51.482;7.224;2023-04-03T15:47:14;10.30;66.70
3660;DHT22;1846;51.482;7.224;2023-04-03T15:49:41;10.40;68.30
3660;DHT22;1846;51.482;7.224;2023-04-03T15:52:08;10.30;67.60
3660;DHT22;1846;51.482;7.224;2023-04-03T15:54:37;10.30;80.80
3660;DHT22;1846;51.482;7.224;2023-04-03T15:57:04;10.30;67.40
3660;DHT22;1846;51.482;7.224;2023-04-03T15:59:31;10.30;67.00
3660;DHT22;1846;51.482;7.224;2023-04-03T16:01:59;10.30;67.10
3660;DHT22;1846;51.482;7.224;2023-04-03T16:04:29;10.30;66.60
3660;DHT22;1846;51.482;7.224;2023-04-03T16:06:56;10.00;63.50
3660;DHT22;1846;51.482;7.224;2023-04-03T16:09:23;9.80;60.90
3660;DHT22;1846;51.482;7.224;2023-04-03T16:11:50;9.80;61.10
3660;DHT22;1846;51.482;7.224;2023-04-03T16:14:17;9.70;60.40
3660;DHT22;1846;51.482;7.224;2023-04-03T16:16:44;9.50;60.10
3660;DHT22;1846;51.482;7.224;2023-04-03T16:19:11;9.40;59.20
3660;DHT22;1846;51.482;7.224;2023-04-03T16:21:40;9.20;58.10
3660;DHT22;1846;51.482;7.224;2023-04-03T16:24:06;9.00;57.40
3660;DHT22;1846;51.482;7.224;2023-04-03T16:26:33;8.90;57.50
3660;DHT22;1846;51.482;7.224;2023-04-03T16:29:00;8.90;57.80
3660;DHT22;1846;51.482;7.224;2023-04-03T16:31:27;8.70;57.70
3660;DHT22;1846;51.482;7.224;2023-04-03T16:33:55;8.70;57.30
3660;DHT22;1846;51.482;7.224;2023-04-03T16:36:22;8.70;58.10
3660;DHT22;1846;51.482;7.224;2023-04-03T16:38:50;8.60;57.60
3660;DHT22;1846;51.482;7.224;2023-04-03T16:41:19;8.60;57.50
3660;DHT22;1846;51.482;7.224;2023-04-03T16:43:46;8.50;56.70
3660;DHT22;1846;51.482;7.224;2023-04-03T16:46:13;8.40;57.00